Time;durP1;ratioP1;P1;durP2;ratioP2;P2;SDS_P1;SDS_P2;PMS_P1;PMS_P2;Temp;Humidity;BMP_temperature;BMP_pressure;BME280_temperature;BME280_humidity;BME280_pressure;Samples;Min_cycle;Max_cycle;Signal;HPM_P1;HPM_P2
2023/04/20 00:02:07;;;;;;;4.57;3.30;;;;;;;7.12;41.82;99559.09;10393149;28;20237;-67
2023/04/20 00:07:09;;;;;;;4.53;3.10;;;;;;;5.32;43.34;99329.28;10398535;28;20337;-69
2023/04/20 00:12:10;;;;;;;5.60;3.30;;;;;;;6.15;42.90;99460.44;10395672;28;20241;-68
2023/04/20 00:17:12;;;;;;;3.47;3.17;;;;;;;6.02;43.46;99460.09;10406692;28;20229;-67
2023/04/20 00:22:13;;;;;;;4.77;3.43;;;;;;;5.54;44.15;99390.72;10404413;28;20573;-66
2023/04/20 00:27:15;;;;;;;4.97;3.50;;;;;;;5.36;44.11;99377.56;10402737;28;20278;-67
2023/04/20 00:32:17;;;;;;;4.37;3.97;;;;;;;5.10;44.77;99362.53;10400643;28;20235;-66
2023/04/20 00:37:18;;;;;;;4.43;3.70;;;;;;;4.80;45.38;99312.69;10390196;28;20221;-66
2023/04/20 00:42:20;;;;;;;4.67;3.20;;;;;;;6.01;43.42;99488.47;10414603;28;20343;-67
2023/04/20 00:47:21;;;;;;;4.00;3.60;;;;;;;4.43;45.71;99300.53;10405567;28;20241;-66
2023/04/20 00:52:23;;;;;;;4.30;3.80;;;;;;;4.55;46.21;99358.41;10406535;28;20315;-67
2023/04/20 00:57:26;;;;;;;5.43;3.53;;;;;;;4.66;45.98;99391.78;10398154;28;20220;-67
2023/04/20 01:02:28;;;;;;;8.13;4.40;;;;;;;4.66;45.99;99396.22;10406158;28;20232;-69
2023/04/20 01:07:30;;;;;;;3.80;3.50;;;;;;;3.78;47.20;99325.47;10395639;28;20320;-67
2023/04/20 01:12:31;;;;;;;5.10;3.53;;;;;;;4.32;46.53;99394.31;10398642;28;20813;-66
2023/04/20 01:17:38;;;;;;;5.77;4.20;;;;;;;4.48;46.38;99414.84;10392314;28;20225;-69
2023/04/20 01:22:48;;;;;;;4.97;3.90;;;;;;;4.89;45.85;99457.53;10405111;28;20610;-69
2023/04/20 01:27:50;;;;;;;4.03;3.53;;;;;;;4.57;46.37;99419.19;10405445;28;20240;-66
2023/04/20 01:32:51;;;;;;;5.23;4.10;;;;;;;4.61;45.48;99425.88;10399277;28;21158;-67
2023/04/20 01:37:53;;;;;;;4.87;3.63;;;;;;;5.09;45.00;99461.66;10388212;28;20204;-69
2023/04/20 01:42:55;;;;;;;4.80;4.00;;;;;;;4.78;45.41;99448.03;10403589;28;20755;-68
2023/04/20 01:47:57;;;;;;;4.57;3.70;;;;;;;5.21;45.25;99462.22;10393423;28;20252;-69
2023/04/20 01:52:58;;;;;;;6.30;4.50;;;;;;;5.70;44.74;99485.53;10391376;28;20236;-69
2023/04/20 01:58:00;;;;;;;4.40;4.00;;;;;;;5.39;44.28;99483.38;10404759;28;20233;-69
2023/04/20 02:03:02;;;;;;;4.10;3.70;;;;;;;5.56;44.39;99491.44;10403635;28;20247;-67
2023/04/20 02:08:04;;;;;;;5.60;3.87;;;;;;;4.71;44.58;99434.56;10397220;28;20236;-67
2023/04/20 02:13:06;;;;;;;5.40;4.00;;;;;;;3.76;45.76;99333.56;10400584;28;20236;-67
2023/04/20 02:18:07;;;;;;;4.30;3.90;;;;;;;4.70;45.41;99438.19;10390093;28;20239;-66
2023/04/20 02:23:09;;;;;;;6.57;4.10;;;;;;;4.39;45.73;99406.00;10389680;28;20701;-67
2023/04/20 02:28:11;;;;;;;6.10;4.00;;;;;;;4.37;45.18;99397.34;10399620;28;20237;-69
2023/04/20 02:33:13;;;;;;;4.37;3.80;;;;;;;5.48;44.15;99473.63;10377981;28;20232;-67
2023/04/20 02:38:14;;;;;;;4.80;4.20;;;;;;;4.80;45.42;99416.06;10389436;28;20237;-66
2023/04/20 02:43:16;;;;;;;5.47;4.30;;;;;;;5.08;44.30;99446.72;10401675;28;20231;-70
2023/04/20 02:48:18;;;;;;;7.80;3.90;;;;;;;4.51;45.36;99396.81;10389744;28;20675;-67
2023/04/20 02:53:19;;;;;;;8.10;4.20;;;;;;;4.24;45.49;99397.72;10391228;28;20228;-67
2023/04/20 02:58:21;;;;;;;5.07;4.57;;;;;;;4.18;46.15;99377.97;10407745;28;20236;-69
2023/04/20 03:03:23;;;;;;;5.20;4.70;;;;;;;3.30;47.13;99324.00;10387898;28;20248;-69
2023/04/20 03:08:25;;;;;;;6.17;4.27;;;;;;;3.62;47.13;99340.22;10363695;28;20232;-66
2023/04/20 03:13:26;;;;;;;5.07;4.57;;;;;;;4.26;45.59;99385.16;10403502;28;20235;-69
2023/04/20 03:18:28;;;;;;;7.53;5.00;;;;;;;4.94;45.07;99418.94;10399189;28;20239;-67
2023/04/20 03:23:30;;;;;;;4.90;4.30;;;;;;;3.79;47.00;99353.63;10392791;28;20242;-67
2023/04/20 03:28:31;;;;;;;5.10;4.50;;;;;;;3.72;47.35;99347.28;10405042;28;20302;-68
2023/04/20 03:33:33;;;;;;;5.90;4.13;;;;;;;4.26;46.56;99386.97;10395844;28;20241;-66
2023/04/20 03:38:34;;;;;;;5.97;4.47;;;;;;;3.68;46.67;99351.19;10398690;28;20604;-65
2023/04/20 03:43:36;;;;;;;6.27;4.10;;;;;;;4.01;46.44;99360.28;10403490;28;20239;-67
2023/04/20 03:48:38;;;;;;;4.70;3.60;;;;;;;4.42;45.76;99388.94;10402365;28;20246;-67
2023/04/20 03:53:39;;;;;;;5.27;4.40;;;;;;;3.52;46.57;99328.88;10396510;28;20229;-67
2023/04/20 03:58:41;;;;;;;5.93;4.23;;;;;;;3.89;46.41;99356.19;10401656;28;20220;-69
2023/04/20 04:03:43;;;;;;;8.37;4.87;;;;;;;4.83;46.18;99397.16;10396445;28;20326;-66
2023/04/20 04:08:45;;;;;;;6.53;5.17;;;;;;;3.52;46.95;99323.56;10394540;28;20252;-68
2023/04/20 04:13:48;;;;;;;5.77;4.90;;;;;;;4.00;46.44;99356.81;10397788;28;20711;-65
2023/04/20 04:18:50;;;;;;;4.93;4.30;;;;;;;4.01;46.14;99360.28;10404261;28;20251;-64
2023/04/20 04:23:52;;;;;;;5.70;5.00;;;;;;;5.04;44.96;99410.06;10396477;28;20263;-68
2023/04/20 04:28:54;;;;;;;8.23;5.30;;;;;;;4.55;45.76;99405.28;10396580;28;20244;-67
2023/04/20 04:33:55;;;;;;;5.87;5.27;;;;;;;5.48;44.27;99450.56;10395075;28;20232;-66
2023/04/20 04:38:57;;;;;;;5.67;5.07;;;;;;;4.52;44.80;99409.06;10395078;28;20220;-68
2023/04/20 04:43:59;;;;;;;7.13;4.97;;;;;;;3.59;47.16;99345.81;10391699;28;20233;-67
2023/04/20 04:49:01;;;;;;;6.63;5.43;;;;;;;4.05;47.00;99363.44;10401139;28;20229;-65
2023/04/20 04:54:03;;;;;;;5.80;5.20;;;;;;;3.98;47.27;99358.75;10400320;28;20232;-65
2023/04/20 04:59:05;;;;;;;6.47;5.00;;;;;;;5.21;45.96;99417.13;10394464;28;20879;-67
2023/04/20 05:05:35;;;;;;;8.83;5.83;;;;;;;1.82;51.79;99414.22;10424641;27;20319;-66
2023/04/20 05:10:36;;;;;;;7.53;5.73;;;;;;;3.42;49.41;99492.09;10422510;28;20223;-67
2023/04/20 05:15:38;;;;;;;6.37;5.23;;;;;;;3.75;49.23;99505.75;10425258;28;20769;-67
2023/04/20 05:20:41;;;;;;;7.97;5.43;;;;;;;2.97;50.60;99469.81;10428506;28;20238;-68
2023/04/20 05:25:42;;;;;;;7.13;5.80;;;;;;;2.50;50.54;99436.22;10427600;28;20231;-68
2023/04/20 05:30:44;;;;;;;6.80;5.20;;;;;;;3.52;49.99;99476.19;10427865;28;20228;-66
2023/04/20 05:35:46;;;;;;;8.03;6.10;;;;;;;3.36;50.31;99482.09;10427499;28;20739;-68
2023/04/20 05:40:47;;;;;;;6.57;5.93;;;;;;;3.51;50.26;99479.81;10429244;28;20242;-68
2023/04/20 05:45:51;;;;;;;9.83;6.17;;;;;;;2.75;51.03;99467.47;10424641;28;20247;-68
2023/04/20 05:50:53;;;;;;;7.97;5.93;;;;;;;2.80;51.22;99462.59;10432142;28;20224;-68
2023/04/20 05:55:55;;;;;;;6.20;5.60;;;;;;;4.02;50.17;99489.88;10427455;28;20236;-67
2023/04/20 06:00:57;;;;;;;7.37;5.93;;;;;;;2.48;52.74;99451.34;10426603;28;20708;-67
2023/04/20 06:05:58;;;;;;;7.90;5.57;;;;;;;2.60;51.92;99453.84;10426656;28;20244;-67
2023/04/20 06:11:00;;;;;;;6.30;5.70;;;;;;;4.05;50.63;99490.53;10429820;28;20239;-67
2023/04/20 06:16:02;;;;;;;6.23;5.43;;;;;;;2.69;52.46;99447.75;10402844;28;20280;-67
2023/04/20 06:21:03;;;;;;;9.57;5.70;;;;;;;2.77;52.69;99460.22;10401968;28;20228;-67
2023/04/20 06:26:07;;;;;;;7.60;5.87;;;;;;;3.83;50.94;99487.31;10399329;28;20613;-67
2023/04/20 06:31:09;;;;;;;11.67;5.93;;;;;;;3.65;51.26;99474.06;10388208;28;20233;-66
2023/04/20 06:36:11;;;;;;;6.43;5.83;;;;;;;3.53;51.98;99470.78;10400403;28;20315;-67
2023/04/20 06:41:12;;;;;;;5.83;5.13;;;;;;;4.57;50.15;99477.50;10397572;28;20286;-67
2023/04/20 06:46:14;;;;;;;6.60;4.93;;;;;;;5.93;49.21;99484.97;10398695;28;20235;-68
2023/04/20 06:51:16;;;;;;;6.83;5.40;;;;;;;5.83;49.14;99482.44;10395945;28;20572;-67
2023/04/20 06:56:17;;;;;;;5.60;4.93;;;;;;;5.20;49.00;99488.91;10393140;28;20229;-68
2023/04/20 07:01:19;;;;;;;6.47;5.73;;;;;;;5.04;49.93;99511.66;10391472;28;20240;-67
2023/04/20 07:06:20;;;;;;;6.13;5.13;;;;;;;6.67;48.07;99488.56;10394239;28;20290;-68
2023/04/20 07:11:23;;;;;;;7.43;5.30;;;;;;;5.43;49.11;99505.13;10399802;28;20668;-67
2023/04/20 07:16:25;;;;;;;5.27;4.77;;;;;;;5.84;48.84;99508.00;10393353;28;20230;-67
2023/04/20 07:21:26;;;;;;;6.23;5.63;;;;;;;4.75;50.31;99450.97;10397026;28;20605;-66
2023/04/20 07:26:28;;;;;;;6.63;6.00;;;;;;;5.80;49.69;99502.16;10391779;28;20251;-68
2023/04/20 07:31:30;;;;;;;6.30;5.70;;;;;;;6.93;48.03;99483.09;10394819;28;20232;-68
2023/04/20 07:36:34;;;;;;;6.27;5.10;;;;;;;5.97;49.63;99515.50;10388823;28;20254;-66
2023/04/20 07:41:36;;;;;;;7.23;5.57;;;;;;;6.97;48.28;99481.78;10393652;28;20241;-67
2023/04/20 07:46:37;;;;;;;6.23;5.13;;;;;;;6.26;48.97;99491.16;10392685;28;20242;-67
2023/04/20 07:51:39;;;;;;;6.27;5.60;;;;;;;6.34;49.20;99509.78;10397817;28;20606;-67
2023/04/20 07:56:40;;;;;;;5.93;5.33;;;;;;;6.80;48.50;99483.63;10395124;28;20238;-68
2023/04/20 08:01:42;;;;;;;5.73;5.00;;;;;;;6.65;48.30;99505.69;10392840;28;20658;-68
2023/04/20 08:06:44;;;;;;;7.77;5.67;;;;;;;6.94;47.70;99490.09;10393803;28;20263;-67
2023/04/20 08:11:46;;;;;;;7.87;5.60;;;;;;;7.33;48.16;99480.53;10395776;28;20236;-67
2023/04/20 08:16:47;;;;;;;7.90;5.47;;;;;;;7.78;47.52;99487.06;10389929;28;20240;-67
2023/04/20 08:21:50;;;;;;;6.17;5.43;;;;;;;8.18;46.69;99458.53;10392700;28;20240;-67
2023/04/20 08:26:52;;;;;;;10.17;5.93;;;;;;;8.43;46.31;99471.69;10393611;28;20246;-67
2023/04/20 08:31:53;;;;;;;6.07;5.23;;;;;;;8.16;46.97;99462.41;10394654;28;20238;-68
2023/04/20 08:36:55;;;;;;;5.97;5.17;;;;;;;8.13;46.96;99465.41;10393497;28;20234;-67
2023/04/20 08:41:57;;;;;;;6.67;5.70;;;;;;;7.95;47.41;99463.84;10392077;28;20239;-67
2023/04/20 08:46:59;;;;;;;9.70;6.17;;;;;;;7.46;47.80;99474.66;10393484;28;20920;-67
2023/04/20 08:52:01;;;;;;;9.33;5.90;;;;;;;8.14;47.57;99465.22;10395395;28;20250;-67
2023/04/20 08:57:03;;;;;;;12.23;5.50;;;;;;;8.43;46.37;99431.72;10392412;28;20609;-66
2023/04/20 09:02:11;;;;;;;7.30;5.60;;;;;;;7.89;47.59;99481.34;10363202;28;20236;-65
2023/04/20 09:07:18;;;;;;;6.37;5.63;;;;;;;8.82;46.54;99446.69;10389324;28;20271;-68
2023/04/20 09:12:20;;;;;;;6.80;5.63;;;;;;;8.06;46.79;99463.44;10388598;28;20652;-67
2023/04/20 09:17:31;;;;;;;7.77;5.83;;;;;;;9.00;45.93;99449.06;10391035;28;20236;-67
2023/04/20 09:22:35;;;;;;;8.20;5.57;;;;;;;8.87;47.23;99459.53;10391195;28;20236;-67
2023/04/20 09:27:37;;;;;;;6.10;5.30;;;;;;;7.96;45.91;99428.19;10394833;28;20246;-66
2023/04/20 09:32:39;;;;;;;10.00;6.50;;;;;;;9.09;46.64;99433.81;10388278;28;20366;-67
2023/04/20 09:37:47;;;;;;;8.67;6.07;;;;;;;8.02;47.22;99411.50;10394577;28;20233;-66
2023/04/20 09:42:51;;;;;;;7.87;5.87;;;;;;;9.88;45.52;99412.63;10389759;28;20244;-67
2023/04/20 09:47:53;;;;;;;8.67;5.30;;;;;;;11.05;43.62;99432.84;10390756;28;20293;-66
2023/04/20 09:52:56;;;;;;;7.60;5.97;;;;;;;10.74;44.23;99401.06;10393949;28;20628;-67
2023/04/20 09:58:01;;;;;;;6.27;5.17;;;;;;;10.02;44.13;99420.81;10401964;28;20209;-68
2023/04/20 10:03:03;;;;;;;6.63;5.30;;;;;;;9.47;44.08;99397.16;10392776;28;20236;-66
2023/04/20 10:08:05;;;;;;;8.00;5.70;;;;;;;8.45;45.19;99349.69;10396745;28;20279;-68
2023/04/20 10:13:07;;;;;;;6.20;5.53;;;;;;;10.11;44.30;99399.13;10401540;28;20386;-68
2023/04/20 10:18:23;;;;;;;9.17;5.33;;;;;;;10.29;42.97;99403.19;10394339;28;20251;-66
2023/04/20 10:23:25;;;;;;;6.03;4.93;;;;;;;9.19;44.06;99410.31;10397911;28;20232;-66
2023/04/20 10:28:41;;;;;;;7.43;5.20;;;;;;;9.33;43.61;99373.94;10399182;28;20587;-66
2023/04/20 10:33:49;;;;;;;7.43;4.90;;;;;;;10.18;43.48;99377.78;10396278;28;20236;-66
2023/04/20 10:38:52;;;;;;;8.30;5.80;;;;;;;9.86;44.19;99393.31;10398982;28;20240;-66
2023/04/20 10:43:53;;;;;;;7.60;6.77;;;;;;;9.65;45.00;99380.72;10395595;28;20777;-68
2023/04/20 10:49:03;;;;;;;7.70;6.20;;;;;;;10.51;43.90;99383.44;10399836;28;20236;-67
2023/04/20 10:54:06;;;;;;;6.60;5.53;;;;;;;9.84;43.81;99392.66;10396544;28;20232;-68
2023/04/20 10:59:11;;;;;;;6.13;5.17;;;;;;;8.70;44.37;99336.94;10366773;28;20634;-67
2023/04/20 11:06:31;;;;;;;6.30;5.10;;;;;;;6.99;48.01;99314.84;10435940;27;20871;-65
2023/04/20 11:11:36;;;;;;;8.17;5.53;;;;;;;7.90;47.18;99396.94;10320870;28;20229;-68
2023/04/20 11:16:38;;;;;;;7.47;5.50;;;;;;;8.33;46.85;99386.63;10312499;28;20677;-68
2023/04/20 11:21:52;;;;;;;6.37;5.73;;;;;;;7.98;47.12;99383.53;10363005;28;20232;-68
2023/04/20 11:26:54;;;;;;;7.27;6.53;;;;;;;8.32;47.23;99381.47;10362093;28;20233;-68
2023/04/20 11:31:57;;;;;;;7.67;5.40;;;;;;;8.33;47.18;99367.13;10397591;28;20782;-68
2023/04/20 11:37:17;;;;;;;7.40;5.70;;;;;;;8.22;47.11;99379.06;10390728;28;20235;-67
2023/04/20 11:42:19;;;;;;;6.83;5.83;;;;;;;8.79;47.13;99378.53;10391373;28;20224;-67
2023/04/20 11:47:21;;;;;;;7.57;6.80;;;;;;;7.82;48.60;99333.03;10383575;28;20232;-67
2023/04/20 11:52:22;;;;;;;7.07;6.30;;;;;;;8.94;48.75;99357.22;10391244;28;20236;-68
2023/04/20 11:57:24;;;;;;;6.60;5.90;;;;;;;7.49;50.36;99287.97;10398680;28;20235;-68
2023/04/20 12:02:26;;;;;;;8.73;6.07;;;;;;;8.47;50.39;99339.66;10394955;28;20240;-67
2023/04/20 12:07:27;;;;;;;8.57;6.40;;;;;;;8.43;51.31;99317.06;10395715;28;20371;-68
2023/04/20 12:12:29;;;;;;;7.10;5.73;;;;;;;8.30;50.73;99323.00;10399896;28;20240;-67
2023/04/20 12:17:31;;;;;;;7.37;6.17;;;;;;;7.91;51.43;99327.50;10379261;28;20225;-67
2023/04/20 12:22:33;;;;;;;7.47;6.07;;;;;;;8.22;50.88;99317.75;10372347;28;20249;-68
2023/04/20 12:27:35;;;;;;;6.87;6.17;;;;;;;9.31;49.52;99311.91;10362950;28;20271;-68
2023/04/20 12:32:37;;;;;;;8.30;6.50;;;;;;;9.35;48.33;99310.53;10366644;28;20240;-68
2023/04/20 12:37:38;;;;;;;6.63;5.93;;;;;;;9.16;48.21;99323.44;10367609;28;20291;-68
2023/04/20 12:42:40;;;;;;;6.53;5.93;;;;;;;10.19;46.61;99346.53;10367212;28;20742;-68
2023/04/20 12:47:41;;;;;;;9.13;6.60;;;;;;;10.49;46.73;99352.53;10369828;28;20232;-66
2023/04/20 12:52:43;;;;;;;6.70;5.97;;;;;;;9.50;47.28;99327.34;10358946;28;20648;-68
2023/04/20 12:57:45;;;;;;;5.80;5.20;;;;;;;9.38;45.91;99329.66;10370233;28;20646;-68
2023/04/20 13:02:47;;;;;;;5.80;5.20;;;;;;;9.42;45.25;99346.13;10352623;28;20233;-68
2023/04/20 13:07:49;;;;;;;7.57;5.27;;;;;;;8.33;46.82;99298.63;10370122;22;20245;-39
2023/04/20 13:12:51;;;;;;;6.80;5.83;;;;;;;8.54;46.70;99326.44;10286177;28;20232;-40
2023/04/20 13:17:53;;;;;;;6.90;5.60;;;;;;;8.08;47.41;99304.22;10296185;28;20234;-39
2023/04/20 13:23:00;;;;;;;8.03;6.03;;;;;;;8.66;46.90;99362.34;10254905;28;20280;-39
2023/04/20 13:28:02;;;;;;;6.93;6.20;;;;;;;8.70;46.71;99352.94;10281111;28;20477;-39
2023/04/20 13:33:05;;;;;;;6.53;5.80;;;;;;;8.10;47.74;99296.03;10299400;28;20302;-39
2023/04/20 13:38:07;;;;;;;6.70;5.87;;;;;;;9.20;47.25;99332.72;10302481;28;20277;-39
2023/04/20 13:43:08;;;;;;;5.30;4.80;;;;;;;8.39;49.02;99331.78;10298552;28;20318;-39
2023/04/20 13:48:10;;;;;;;6.93;5.73;;;;;;;8.22;49.69;99323.91;10299621;28;20234;-39
2023/04/20 13:53:12;;;;;;;5.27;4.43;;;;;;;8.26;49.23;99341.19;10302811;28;21077;-39
2023/04/20 13:58:13;;;;;;;5.50;4.57;;;;;;;8.40;49.39;99347.56;10282913;28;20250;-40
2023/04/20 14:03:17;;;;;;;7.43;5.27;;;;;;;7.94;51.58;99312.97;10280070;28;20233;-39
2023/04/20 14:08:19;;;;;;;5.70;4.53;;;;;;;8.11;50.96;99330.47;10280540;28;20251;-39
2023/04/20 14:13:22;;;;;;;6.40;5.10;;;;;;;7.79;51.17;99296.09;10286516;28;20578;-40
2023/04/20 14:18:23;;;;;;;6.17;4.83;;;;;;;8.48;50.61;99341.34;10289433;28;20225;-39
2023/04/20 14:23:25;;;;;;;6.30;5.70;;;;;;;8.37;50.76;99304.44;10286652;28;20233;-39
2023/04/20 14:28:27;;;;;;;6.07;4.80;;;;;;;8.16;51.84;99316.63;10286677;28;20570;-39
2023/04/20 14:33:28;;;;;;;6.20;5.60;;;;;;;8.62;51.16;99318.34;10283665;28;20217;-40
2023/04/20 14:38:30;;;;;;;6.50;5.53;;;;;;;8.44;51.96;99303.53;10284633;28;20246;-39
2023/04/20 14:43:33;;;;;;;5.90;5.30;;;;;;;8.53;51.92;99324.78;10306227;28;20222;-40
2023/04/20 14:48:36;;;;;;;6.07;5.40;;;;;;;7.75;52.48;99284.97;10288567;28;20226;-39
2023/04/20 14:53:38;;;;;;;7.57;6.30;;;;;;;7.79;53.37;99290.75;10290549;28;20293;-39
2023/04/20 14:58:41;;;;;;;7.20;6.50;;;;;;;6.86;54.89;99202.03;10293554;28;20585;-39
2023/04/20 15:03:43;;;;;;;7.67;6.87;;;;;;;7.82;54.26;99307.22;10283118;28;20300;-39
2023/04/20 15:08:45;;;;;;;7.77;6.93;;;;;;;8.25;52.19;99302.22;10291180;28;20242;-39
2023/04/20 15:13:48;;;;;;;7.70;6.13;;;;;;;7.72;51.77;99294.13;10288248;28;20614;-40
2023/04/20 15:18:51;;;;;;;7.53;6.27;;;;;;;7.94;50.81;99301.50;10288367;28;20238;-39
2023/04/20 15:23:53;;;;;;;6.97;6.27;;;;;;;8.37;50.39;99344.44;10292623;28;20314;-39
2023/04/20 15:28:56;;;;;;;7.43;6.73;;;;;;;8.90;50.07;99358.59;10280180;28;20620;-39
2023/04/20 15:33:58;;;;;;;7.70;6.37;;;;;;;7.26;52.10;99286.09;10285634;28;20320;-39
2023/04/20 15:39:01;;;;;;;7.90;6.40;;;;;;;8.24;50.02;99318.41;10290624;28;20234;-39
2023/04/20 15:44:02;;;;;;;7.83;6.33;;;;;;;8.27;50.46;99332.19;10288814;28;20237;-38
2023/04/20 15:49:04;;;;;;;6.90;6.20;;;;;;;8.94;50.38;99333.19;10293966;28;20333;-39
2023/04/20 15:54:06;;;;;;;7.77;6.03;;;;;;;8.04;52.30;99334.06;10299842;28;20238;-39
2023/04/20 15:59:07;;;;;;;7.37;6.60;;;;;;;8.97;50.45;99324.81;10300399;28;20226;-39
2023/04/20 16:04:09;;;;;;;7.53;6.57;;;;;;;9.35;50.28;99343.38;10291492;28;20241;-39
2023/04/20 16:09:12;;;;;;;6.87;6.17;;;;;;;6.96;53.37;99243.34;10286099;28;20232;-39
2023/04/20 16:14:14;;;;;;;6.80;6.10;;;;;;;8.43;51.97;99370.38;10286063;28;20203;-39
2023/04/20 16:19:15;;;;;;;8.23;6.30;;;;;;;7.66;53.02;99334.81;10279541;28;20245;-38
2023/04/20 16:24:17;;;;;;;7.37;6.27;;;;;;;9.10;50.47;99350.06;10286442;28;20227;-39
2023/04/20 16:29:19;;;;;;;6.93;6.20;;;;;;;8.06;53.11;99377.34;10283093;28;20317;-39
2023/04/20 16:34:23;;;;;;;7.95;6.70;;;;;;;9.36;50.61;99369.06;10283054;28;20743;-39
2023/04/20 16:39:25;;;;;;;7.60;6.70;;;;;;;8.07;51.95;99323.88;10286507;28;21081;-40
2023/04/20 16:44:26;;;;;;;6.87;5.57;;;;;;;8.43;51.89;99355.19;10285512;28;20234;-39
2023/04/20 16:49:28;;;;;;;6.97;5.90;;;;;;;9.31;50.97;99374.13;10282264;28;20758;-39
2023/04/20 16:54:30;;;;;;;7.60;6.33;;;;;;;7.99;53.62;99360.41;10285955;28;20254;-39
2023/04/20 16:59:32;;;;;;;7.23;6.47;;;;;;;8.49;52.10;99356.34;10276453;28;20334;-39
2023/04/20 17:04:34;;;;;;;7.27;6.03;;;;;;;8.10;52.36;99341.34;10276696;28;20226;-39
2023/04/20 17:09:36;;;;;;;6.93;6.30;;;;;;;8.78;52.05;99378.72;10270511;28;20231;-40
2023/04/20 17:14:38;;;;;;;8.10;7.03;;;;;;;9.81;50.14;99411.72;10277566;28;20231;-39
2023/04/20 17:19:39;;;;;;;9.70;6.67;;;;;;;9.31;51.20;99394.66;10279753;28;20778;-39
2023/04/20 17:24:41;;;;;;;7.07;6.37;;;;;;;9.39;50.94;99376.69;10275377;28;20595;-39
2023/04/20 17:29:43;;;;;;;8.50;6.80;;;;;;;8.44;51.00;99332.88;10276937;28;20234;-39
2023/04/20 17:34:47;;;;;;;6.87;6.00;;;;;;;9.13;50.47;99363.84;10279293;28;20244;-39
2023/04/20 17:39:49;;;;;;;9.20;5.97;;;;;;;9.66;49.54;99393.03;10281797;28;21012;-39
2023/04/20 17:44:51;;;;;;;6.77;6.10;;;;;;;9.03;50.32;99430.84;10285730;28;20237;-39
2023/04/20 17:49:54;;;;;;;7.57;6.47;;;;;;;8.94;50.86;99399.09;10282745;28;20238;-39
2023/04/20 17:54:56;;;;;;;7.93;7.13;;;;;;;8.98;50.80;99411.06;10281156;28;20216;-40
2023/04/20 17:59:58;;;;;;;7.20;6.00;;;;;;;9.89;48.95;99424.19;10279689;28;20248;-39
2023/04/20 18:05:00;;;;;;;7.90;7.10;;;;;;;9.35;50.23;99410.13;10278934;28;20246;-39
2023/04/20 18:10:02;;;;;;;7.03;6.33;;;;;;;9.23;49.88;99395.63;10287461;28;20245;-39
2023/04/20 18:15:05;;;;;;;7.03;6.30;;;;;;;10.03;48.73;99447.34;10281823;28;20585;-39
2023/04/20 18:20:09;;;;;;;7.77;6.87;;;;;;;7.79;52.00;99370.66;10279850;28;20320;-39
2023/04/20 18:25:11;;;;;;;7.83;6.87;;;;;;;8.91;50.49;99437.66;10282180;28;20234;-39
2023/04/20 18:30:13;;;;;;;8.30;6.57;;;;;;;8.32;51.14;99430.31;10274965;28;20234;-40
2023/04/20 18:35:15;;;;;;;8.63;7.40;;;;;;;8.38;51.35;99420.75;10279984;28;20795;-39
2023/04/20 18:40:17;;;;;;;6.90;6.20;;;;;;;8.13;51.48;99420.09;10284264;28;20249;-39
2023/04/20 18:45:20;;;;;;;8.17;6.80;;;;;;;8.88;50.77;99440.69;10283333;28;20246;-39
2023/04/20 18:50:23;;;;;;;7.87;6.77;;;;;;;8.48;51.45;99426.66;10281447;28;20679;-40
2023/04/20 18:55:24;;;;;;;7.33;6.63;;;;;;;7.43;52.74;99358.72;10289733;28;20254;-39
2023/04/20 19:00:26;;;;;;;8.03;7.23;;;;;;;7.97;51.66;99394.41;10283911;28;20257;-39
2023/04/20 19:05:29;;;;;;;8.30;7.43;;;;;;;8.74;51.18;99436.97;10282826;28;20329;-39
2023/04/20 19:10:31;;;;;;;8.10;6.40;;;;;;;8.09;52.13;99412.44;10278816;28;20846;-39
2023/04/20 19:15:33;;;;;;;8.93;6.93;;;;;;;8.05;52.19;99405.84;10283948;28;20240;-39
2023/04/20 19:20:35;;;;;;;9.10;8.10;;;;;;;7.86;52.25;99398.28;10278508;28;20230;-39
2023/04/20 19:25:37;;;;;;;8.73;7.83;;;;;;;7.91;52.59;99401.25;10267734;28;20245;-39
2023/04/20 19:30:38;;;;;;;10.80;8.37;;;;;;;6.94;54.33;99338.47;10287106;28;20634;-39
2023/04/20 19:35:41;;;;;;;9.97;8.73;;;;;;;7.82;53.37;99421.75;10288595;28;20238;-39
2023/04/20 19:40:43;;;;;;;12.57;9.53;;;;;;;8.20;52.57;99427.22;10293518;28;20237;-39
2023/04/20 19:45:45;;;;;;;14.37;11.57;;;;;;;7.59;53.31;99397.72;10290095;28;20233;-39
2023/04/20 19:50:48;;;;;;;10.83;8.73;;;;;;;8.04;52.86;99438.81;10293118;28;20261;-39
2023/04/20 19:55:50;;;;;;;10.70;9.07;;;;;;;7.59;53.11;99418.22;10290493;28;20746;-38
2023/04/20 20:00:52;;;;;;;9.20;8.00;;;;;;;7.54;53.22;99410.75;10294245;28;20252;-39
2023/04/20 20:05:54;;;;;;;9.20;8.30;;;;;;;8.58;51.46;99423.75;10292932;28;20320;-39
2023/04/20 20:10:56;;;;;;;11.10;8.20;;;;;;;7.47;53.52;99437.22;10289392;28;20798;-39
2023/04/20 20:15:57;;;;;;;9.23;8.33;;;;;;;8.10;52.88;99440.78;10283923;28;20329;-39
2023/04/20 20:20:59;;;;;;;10.07;9.07;;;;;;;7.18;53.99;99424.53;10287980;28;20249;-39
2023/04/20 20:26:01;;;;;;;10.20;8.90;;;;;;;7.63;53.15;99452.31;10285498;28;20238;-39
2023/04/20 20:31:04;;;;;;;10.43;9.30;;;;;;;6.21;55.88;99318.13;10283187;28;20241;-39
2023/04/20 20:36:05;;;;;;;10.53;9.27;;;;;;;7.86;53.32;99463.03;10289729;28;20239;-39
2023/04/20 20:41:08;;;;;;;11.33;9.10;;;;;;;7.83;53.02;99450.06;10283772;28;20246;-40
2023/04/20 20:46:09;;;;;;;9.30;8.30;;;;;;;8.20;51.91;99435.22;10295001;28;20249;-39
2023/04/20 20:51:11;;;;;;;10.60;9.30;;;;;;;6.69;55.15;99376.72;10288823;28;20239;-39
2023/04/20 20:56:13;;;;;;;10.23;9.03;;;;;;;6.69;54.72;99374.06;10289801;28;20242;-39
2023/04/20 21:01:16;;;;;;;10.20;9.20;;;;;;;7.77;53.44;99447.25;10290464;28;20241;-39
2023/04/20 21:06:18;;;;;;;10.70;9.50;;;;;;;6.73;55.70;99386.03;10292055;28;20350;-39
2023/04/20 21:11:20;;;;;;;10.97;9.87;;;;;;;6.70;54.84;99381.03;10286632;28;20267;-38
2023/04/20 21:16:22;;;;;;;11.13;9.17;;;;;;;7.42;53.61;99434.25;10288848;28;20233;-39
2023/04/20 21:21:24;;;;;;;10.60;9.50;;;;;;;6.67;55.70;99398.16;10291255;28;20261;-39
2023/04/20 21:26:25;;;;;;;11.37;10.27;;;;;;;6.81;54.50;99423.28;10278719;28;20239;-39
2023/04/20 21:31:27;;;;;;;10.30;9.30;;;;;;;7.43;53.67;99445.75;10280141;28;20227;-39
2023/04/20 21:36:29;;;;;;;11.70;10.03;;;;;;;7.92;52.17;99437.56;10285578;28;20240;-39
2023/04/20 21:41:31;;;;;;;10.57;9.47;;;;;;;5.98;54.90;99318.00;10284125;28;20237;-39
2023/04/20 21:46:33;;;;;;;10.80;9.80;;;;;;;7.50;53.28;99460.84;10287050;28;20717;-39
2023/04/20 21:51:34;;;;;;;10.60;9.50;;;;;;;6.79;54.61;99434.06;10284420;28;21008;-39
2023/04/20 21:56:36;;;;;;;10.63;9.53;;;;;;;7.08;53.37;99438.00;10281642;28;20243;-39
2023/04/20 22:01:38;;;;;;;11.70;10.50;;;;;;;6.27;55.30;99391.88;10285562;28;20756;-39
2023/04/20 22:06:40;;;;;;;11.90;10.70;;;;;;;6.23;55.34;99375.44;10283267;28;20234;-39
2023/04/20 22:11:42;;;;;;;12.50;10.47;;;;;;;7.90;51.85;99447.56;10277314;28;20238;-39
2023/04/20 22:16:43;;;;;;;12.53;9.70;;;;;;;7.59;52.86;99458.97;10279217;28;20717;-39
2023/04/20 22:21:45;;;;;;;12.03;10.93;;;;;;;7.01;54.38;99468.16;10283186;28;20232;-39
2023/04/20 22:26:47;;;;;;;12.00;10.63;;;;;;;7.25;53.44;99456.59;10279640;28;20245;-39
2023/04/20 22:31:49;;;;;;;12.50;11.30;;;;;;;7.21;53.95;99479.22;10279595;28;20708;-39
2023/04/20 22:36:51;;;;;;;12.13;10.30;;;;;;;6.00;54.65;99369.09;10285552;28;20281;-39
2023/04/20 22:41:52;;;;;;;13.50;11.00;;;;;;;7.84;52.08;99478.38;10283868;28;20231;-39
2023/04/20 22:46:54;;;;;;;12.47;10.90;;;;;;;7.76;52.23;99477.56;10282836;28;20243;-39
2023/04/20 22:51:56;;;;;;;12.97;10.77;;;;;;;7.26;54.06;99499.03;10290177;28;20262;-39
2023/04/20 22:56:58;;;;;;;14.27;10.60;;;;;;;7.38;53.16;99488.84;10284000;28;20235;-39
2023/04/20 23:01:59;;;;;;;12.80;11.50;;;;;;;5.91;55.29;99399.28;10280226;28;20241;-39
2023/04/20 23:07:01;;;;;;;16.17;12.53;;;;;;;4.85;57.87;99260.00;10287184;28;20241;-39
2023/04/20 23:12:03;;;;;;;14.67;12.60;;;;;;;5.45;57.04;99373.94;10293352;28;20744;-38
2023/04/20 23:17:06;;;;;;;14.07;12.67;;;;;;;4.48;59.31;99251.38;10281199;28;20257;-39
2023/04/20 23:22:08;;;;;;;14.17;12.43;;;;;;;4.53;59.12;99274.75;10291712;28;20606;-39
2023/04/20 23:27:10;;;;;;;15.17;13.57;;;;;;;5.93;56.44;99475.16;10277973;28;20239;-39
2023/04/20 23:32:11;;;;;;;15.53;12.97;;;;;;;4.55;58.52;99299.28;10283970;28;20235;-39
2023/04/20 23:37:13;;;;;;;14.50;12.70;;;;;;;6.38;54.46;99473.09;10279985;28;20226;-39
2023/04/20 23:42:15;;;;;;;15.00;13.10;;;;;;;4.81;57.12;99340.81;10283820;28;20320;-39